Brightwood, Oregon
Current Conditions -  °F | °C
As of 5:53 AM on Thursday 30 Oct 2014 (Local Time) from KTTD Reporting Station
Light Rain Light Rain  
Wind Chill: 59°   Ceiling: 10000
Heat Index: 59°   Visibility: 10mi
Dew Point: 51°   Wind: 17mph
Humidity: 75%   Direction: 100°E
Pressure: 29.9"   Gusts: 24mph
Location:  45.38°N, 122.02°W
Report Text: KTTD 301253Z AUTO 10015G21KT 10SM -RA FEW065 SCT075 OVC100 15/11 A2990 RMK AO2 RAB51 SLP124 P0000 T01500106
Loading
Personal Weather Stations






























Interactive Weather Map
Tropical Storm Tracking
New forecast layout! Learn more

10-Day Weather Forecast

Advertisements
Track Severe Weather on mobile